Metar z połowy godziny Komunikat METAR ze strony awiacja.imgw.pl Metar G30 EPMB METAR EPMB 241130Z 32007KT CAVOK 09/M00 Q1023 RMK 086 053 7/7=